Time;durP1;ratioP1;P1;durP2;ratioP2;P2;SDS_P1;SDS_P2;PMS_P1;PMS_P2;Temp;Humidity;BMP_temperature;BMP_pressure;BME280_temperature;BME280_humidity;BME280_pressure;Samples;Min_cycle;Max_cycle;Signal;HPM_P1;HPM_P2
2020/12/14 00:00:09;;;;;;;2.35;2.00;;;8.60;99.90;;;;;;5113273;27;20196;-76
2020/12/14 00:02:36;;;;;;;2.33;1.75;;;8.60;99.90;;;;;;5118416;27;20215;-75
2020/12/14 00:05:02;;;;;;;5.40;2.20;;;8.50;99.90;;;;;;5124678;27;20196;-76
2020/12/14 00:07:28;;;;;;;2.00;1.83;;;8.50;99.90;;;;;;5133513;27;20192;-76
2020/12/14 00:09:55;;;;;;;2.75;2.08;;;8.50;99.90;;;;;;5132587;27;20203;-77
2020/12/14 00:12:21;;;;;;;3.88;2.17;;;8.50;99.90;;;;;;5117182;27;20212;-77
2020/12/14 00:14:47;;;;;;;2.83;1.90;;;8.50;99.90;;;;;;5113379;28;20211;-77
2020/12/14 00:17:18;;;;;;;2.05;1.60;;;8.50;99.90;;;;;;5114102;27;20189;-76
2020/12/14 00:19:45;;;;;;;1.85;1.75;;;8.50;99.90;;;;;;5112737;27;20189;-75
2020/12/14 00:22:11;;;;;;;1.70;1.60;;;8.50;99.90;;;;;;5112259;27;20210;-77
2020/12/14 00:24:37;;;;;;;3.60;2.15;;;8.50;99.90;;;;;;5112531;28;20579;-76
2020/12/14 00:27:03;;;;;;;2.22;1.75;;;8.50;99.90;;;;;;5112875;28;20207;-77
2020/12/14 00:29:30;;;;;;;2.45;2.10;;;8.50;99.90;;;;;;5130749;27;20531;-76
2020/12/14 00:31:57;;;;;;;2.22;2.03;;;8.50;99.90;;;;;;5128500;27;20189;-77
2020/12/14 00:34:24;;;;;;;3.28;2.00;;;8.50;99.90;;;;;;5114078;27;20516;-77
2020/12/14 00:36:50;;;;;;;2.13;1.23;;;8.50;99.90;;;;;;5112601;27;20251;-76
2020/12/14 00:39:17;;;;;;;2.17;1.70;;;8.50;99.90;;;;;;5112438;28;20228;-77
2020/12/14 00:41:43;;;;;;;3.45;2.13;;;8.50;99.90;;;;;;5128818;27;20212;-76
2020/12/14 00:44:09;;;;;;;2.47;2.00;;;8.50;99.90;;;;;;5131855;27;20211;-77
2020/12/14 00:46:36;;;;;;;4.55;1.95;;;8.50;99.90;;;;;;5112791;28;20212;-77
2020/12/14 00:49:02;;;;;;;2.63;1.70;;;8.50;99.90;;;;;;5112221;28;20260;-77
2020/12/14 00:51:30;;;;;;;3.08;1.67;;;8.50;99.90;;;;;;5112270;28;20193;-76
2020/12/14 00:53:58;;;;;;;2.10;1.58;;;8.40;99.90;;;;;;5112123;28;20203;-76
2020/12/14 00:56:24;;;;;;;2.17;1.85;;;8.40;99.90;;;;;;5121875;27;20640;-76
2020/12/14 00:58:51;;;;;;;4.13;1.60;;;8.40;99.90;;;;;;5131007;27;20539;-76
2020/12/14 01:01:18;;;;;;;4.32;1.98;;;8.50;99.90;;;;;;5112559;28;20344;-76
2020/12/14 01:03:45;;;;;;;2.35;1.88;;;8.50;99.90;;;;;;5131405;28;20202;-76
2020/12/14 01:06:11;;;;;;;3.10;2.83;;;8.50;99.90;;;;;;5129537;27;20210;-77
2020/12/14 01:08:41;;;;;;;2.38;1.73;;;8.50;99.90;;;;;;5132610;27;20200;-76
2020/12/14 01:11:07;;;;;;;2.95;1.70;;;8.40;99.90;;;;;;5133196;27;20200;-77
2020/12/14 01:13:33;;;;;;;2.88;1.80;;;8.50;99.90;;;;;;5132763;27;20200;-77
2020/12/14 01:16:00;;;;;;;2.72;1.90;;;8.50;99.90;;;;;;5125142;27;20196;-77
2020/12/14 01:18:26;;;;;;;1.75;1.30;;;8.50;99.90;;;;;;5132732;27;20196;-78
2020/12/14 01:20:52;;;;;;;3.05;2.28;;;8.50;99.90;;;;;;5131495;27;20214;-77
2020/12/14 01:23:19;;;;;;;3.22;2.13;;;8.40;99.90;;;;;;5132714;27;20230;-76
2020/12/14 01:25:46;;;;;;;2.70;2.28;;;8.50;99.90;;;;;;5113902;27;20650;-77
2020/12/14 01:28:12;;;;;;;4.13;1.95;;;8.50;99.90;;;;;;5115044;28;20646;-78
2020/12/14 01:30:38;;;;;;;2.88;1.45;;;8.50;99.90;;;;;;5112906;28;20208;-78
2020/12/14 01:33:05;;;;;;;2.10;1.90;;;8.50;99.90;;;;;;5112276;27;20185;-77
2020/12/14 01:35:31;;;;;;;2.33;1.98;;;8.50;99.90;;;;;;5111346;28;20197;-78
2020/12/14 01:37:57;;;;;;;5.50;1.55;;;8.50;99.90;;;;;;5115936;28;20212;-78
2020/12/14 01:40:23;;;;;;;1.90;1.50;;;8.50;99.90;;;;;;5112370;28;20181;-79
2020/12/14 01:42:51;;;;;;;1.95;1.63;;;8.50;99.90;;;;;;5111952;28;20232;-78
2020/12/14 01:45:17;;;;;;;3.40;1.50;;;8.50;99.90;;;;;;5113212;28;20215;-78
2020/12/14 01:47:47;;;;;;;2.08;1.35;;;8.50;99.90;;;;;;5111743;28;20207;-78
2020/12/14 01:50:14;;;;;;;2.65;1.20;;;8.40;99.90;;;;;;5112145;28;20197;-78
2020/12/14 01:52:42;;;;;;;2.20;1.60;;;8.50;99.90;;;;;;5123839;28;20288;-77
2020/12/14 01:55:10;;;;;;;1.70;1.60;;;8.50;99.90;;;;;;5132369;27;20207;-77
2020/12/14 01:57:37;;;;;;;3.35;2.00;;;8.50;99.90;;;;;;5131275;27;20200;-77
2020/12/14 02:00:06;;;;;;;2.17;1.40;;;8.50;99.90;;;;;;5128055;27;20562;-77
2020/12/14 02:02:33;;;;;;;2.10;1.67;;;8.50;99.90;;;;;;5119446;28;20212;-77
2020/12/14 02:04:59;;;;;;;1.85;1.30;;;8.50;99.90;;;;;;5123540;27;20556;-77
2020/12/14 02:07:26;;;;;;;2.15;1.50;;;8.50;99.90;;;;;;5132218;27;20644;-77
2020/12/14 02:09:53;;;;;;;1.42;1.20;;;8.50;99.90;;;;;;5132420;27;20207;-77
2020/12/14 02:12:21;;;;;;;1.40;1.15;;;8.50;99.90;;;;;;5129474;27;20230;-77
2020/12/14 02:14:50;;;;;;;2.95;1.70;;;8.50;99.90;;;;;;5132552;27;20200;-77
2020/12/14 02:17:19;;;;;;;2.80;1.10;;;8.50;99.90;;;;;;5112151;28;20201;-77
2020/12/14 02:19:46;;;;;;;3.15;1.08;;;8.50;99.90;;;;;;5115750;27;20246;-76
2020/12/14 02:22:15;;;;;;;2.60;1.60;;;8.50;99.90;;;;;;5116475;27;20219;-77
2020/12/14 02:24:45;;;;;;;2.58;1.42;;;8.50;99.90;;;;;;5115577;28;20205;-76
2020/12/14 02:27:13;;;;;;;2.97;1.77;;;8.50;99.90;;;;;;5115257;28;20291;-77
2020/12/14 02:29:42;;;;;;;1.95;1.00;;;8.50;99.90;;;;;;5123475;27;20283;-77
2020/12/14 02:32:11;;;;;;;1.42;1.05;;;8.60;99.90;;;;;;5127479;27;20645;-77
2020/12/14 02:34:40;;;;;;;1.92;1.17;;;8.50;99.90;;;;;;5135493;27;20192;-77
2020/12/14 02:37:07;;;;;;;1.67;1.50;;;8.60;99.90;;;;;;5135687;27;20208;-77
2020/12/14 02:39:37;;;;;;;2.22;1.15;;;8.60;99.90;;;;;;5133270;27;20223;-77
2020/12/14 02:42:05;;;;;;;2.03;1.30;;;8.50;99.90;;;;;;5118529;27;20305;-77
2020/12/14 02:44:32;;;;;;;1.33;1.20;;;8.50;99.90;;;;;;5115090;28;20201;-78
2020/12/14 02:46:58;;;;;;;2.10;1.23;;;8.60;99.90;;;;;;5128874;27;20184;-77
2020/12/14 02:49:24;;;;;;;2.50;1.20;;;8.60;99.90;;;;;;5121631;27;20195;-77
2020/12/14 02:51:50;;;;;;;1.33;1.02;;;8.60;99.90;;;;;;5115991;27;20193;-77
2020/12/14 02:54:17;;;;;;;1.33;1.20;;;8.50;99.90;;;;;;5135113;27;20538;-77
2020/12/14 02:56:43;;;;;;;2.85;1.20;;;8.60;99.90;;;;;;5117352;27;20585;-76
2020/12/14 02:59:11;;;;;;;3.45;1.50;;;8.50;99.90;;;;;;5129186;27;20192;-77
2020/12/14 03:01:37;;;;;;;1.17;0.93;;;8.50;99.90;;;;;;5115869;27;20208;-76
2020/12/14 03:04:03;;;;;;;1.60;1.50;;;8.60;99.90;;;;;;5134982;27;20200;-76
2020/12/14 03:06:29;;;;;;;2.35;1.42;;;8.50;99.90;;;;;;5123288;27;20197;-76
2020/12/14 03:08:56;;;;;;;2.40;1.13;;;8.50;99.90;;;;;;5114171;28;20189;-76
2020/12/14 03:11:22;;;;;;;4.78;1.63;;;8.50;99.90;;;;;;5114168;27;20193;-77
2020/12/14 03:13:48;;;;;;;2.35;1.55;;;8.50;99.90;;;;;;5115812;27;20197;-76
2020/12/14 03:16:15;;;;;;;4.22;1.25;;;8.50;99.90;;;;;;5114495;27;20201;-77
2020/12/14 03:18:42;;;;;;;1.15;1.02;;;8.50;99.90;;;;;;5123905;27;20200;-76
2020/12/14 03:21:08;;;;;;;1.45;1.10;;;8.50;99.90;;;;;;5129604;27;20189;-76
2020/12/14 03:23:35;;;;;;;1.35;0.88;;;8.40;99.90;;;;;;5114170;28;20568;-76
2020/12/14 03:26:01;;;;;;;2.53;1.30;;;8.40;99.90;;;;;;5114373;28;20215;-76
2020/12/14 03:28:27;;;;;;;1.10;1.00;;;8.40;99.90;;;;;;5114406;27;20196;-76
2020/12/14 03:30:54;;;;;;;1.60;0.90;;;8.40;99.90;;;;;;5114792;27;20192;-76
2020/12/14 03:33:21;;;;;;;2.47;1.15;;;8.50;99.90;;;;;;5130380;27;20192;-76
2020/12/14 03:35:47;;;;;;;1.92;1.02;;;8.50;99.90;;;;;;5133096;27;20234;-76
2020/12/14 03:38:14;;;;;;;1.27;1.05;;;8.50;99.90;;;;;;5123274;27;20223;-77
2020/12/14 03:40:40;;;;;;;2.08;1.00;;;8.50;99.90;;;;;;5134346;27;20204;-77
2020/12/14 03:43:06;;;;;;;2.47;1.30;;;8.50;99.90;;;;;;5127599;27;20212;-76
2020/12/14 03:45:33;;;;;;;3.20;1.58;;;8.40;99.90;;;;;;5113848;28;20200;-77
2020/12/14 03:47:59;;;;;;;3.22;1.10;;;8.50;99.90;;;;;;5129123;27;20192;-76
2020/12/14 03:50:26;;;;;;;2.92;1.15;;;8.50;99.90;;;;;;5133014;27;20200;-76
2020/12/14 03:52:52;;;;;;;1.17;1.00;;;8.50;99.90;;;;;;5113484;28;20629;-76
2020/12/14 03:55:19;;;;;;;2.35;1.23;;;8.50;99.90;;;;;;5113684;28;20206;-77
2020/12/14 03:57:45;;;;;;;2.72;1.40;;;8.50;99.90;;;;;;5113236;28;20193;-76
2020/12/14 04:00:11;;;;;;;1.10;0.90;;;8.50;99.90;;;;;;5113093;28;20212;-76
2020/12/14 04:02:37;;;;;;;1.75;1.10;;;8.50;99.90;;;;;;5113299;28;20227;-76
2020/12/14 04:05:04;;;;;;;1.58;1.25;;;8.50;99.90;;;;;;5119549;27;20189;-77
2020/12/14 04:07:31;;;;;;;1.65;1.20;;;8.50;99.90;;;;;;5133666;27;20743;-77
2020/12/14 04:09:57;;;;;;;1.50;1.15;;;8.50;99.90;;;;;;5121059;27;20201;-78
2020/12/14 04:12:24;;;;;;;1.50;1.40;;;8.50;99.90;;;;;;5123080;27;20184;-77
2020/12/14 04:14:50;;;;;;;1.38;1.20;;;8.50;99.90;;;;;;5131958;27;20188;-77
2020/12/14 04:17:16;;;;;;;1.23;0.98;;;8.50;99.90;;;;;;5121662;27;20192;-77
2020/12/14 04:19:42;;;;;;;1.65;1.35;;;8.50;99.90;;;;;;5116346;27;20203;-77
2020/12/14 04:22:09;;;;;;;1.27;0.90;;;8.50;99.90;;;;;;5112250;28;20217;-76
2020/12/14 04:24:36;;;;;;;1.80;1.20;;;8.50;99.90;;;;;;5112089;27;20201;-77
2020/12/14 04:27:03;;;;;;;1.30;1.00;;;8.50;99.90;;;;;;5116923;27;20192;-77
2020/12/14 04:29:30;;;;;;;1.73;1.20;;;8.60;99.90;;;;;;5132593;27;20203;-77
2020/12/14 04:31:56;;;;;;;1.65;1.00;;;8.60;99.90;;;;;;5129523;27;20192;-77
2020/12/14 04:34:22;;;;;;;1.50;1.20;;;8.60;99.90;;;;;;5111957;28;20200;-77
2020/12/14 04:36:50;;;;;;;1.45;1.08;;;8.60;99.90;;;;;;5118286;27;20192;-77
2020/12/14 04:39:16;;;;;;;5.70;1.10;;;8.60;99.90;;;;;;5112693;28;20312;-77
2020/12/14 04:41:44;;;;;;;1.40;1.00;;;8.60;99.90;;;;;;5111890;28;20217;-77
2020/12/14 04:44:12;;;;;;;1.10;0.85;;;8.60;99.90;;;;;;5118374;27;20211;-77
2020/12/14 04:46:39;;;;;;;1.83;0.90;;;8.60;99.90;;;;;;5112409;28;20197;-76
2020/12/14 04:49:08;;;;;;;2.00;1.58;;;8.60;99.90;;;;;;5112449;28;20193;-77
2020/12/14 04:51:38;;;;;;;1.25;1.10;;;8.60;99.90;;;;;;5114864;27;20648;-77
2020/12/14 04:54:05;;;;;;;1.25;0.98;;;8.60;99.90;;;;;;5133335;27;20195;-77
2020/12/14 04:56:38;;;;;;;1.63;1.30;;;8.60;99.90;;;;;;5117831;27;20207;-77
2020/12/14 04:59:05;;;;;;;1.77;1.55;;;8.60;99.90;;;;;;5112578;27;20197;-77
2020/12/14 05:01:31;;;;;;;1.30;0.90;;;8.60;99.90;;;;;;5124935;27;20188;-77
2020/12/14 05:03:58;;;;;;;2.53;1.20;;;8.60;99.90;;;;;;5132256;27;20204;-77
2020/12/14 05:06:24;;;;;;;1.48;1.05;;;8.60;99.90;;;;;;5130708;28;20194;-77
2020/12/14 05:08:50;;;;;;;1.48;1.00;;;8.60;99.90;;;;;;5132364;27;20188;-77
2020/12/14 05:11:33;;;;;;;1.05;0.90;;;8.60;99.90;;;;;;5131573;27;20535;-77
2020/12/14 05:14:12;;;;;;;1.00;0.90;;;8.50;99.90;;;;;;5132509;27;20603;-76
2020/12/14 05:16:39;;;;;;;1.30;1.08;;;8.60;99.90;;;;;;5130326;27;20202;-78
2020/12/14 05:19:24;;;;;;;2.65;1.10;;;8.60;99.90;;;;;;5123593;27;20257;-77
2020/12/14 05:21:53;;;;;;;1.30;1.10;;;8.60;99.90;;;;;;5129020;28;20242;-78
2020/12/14 05:24:21;;;;;;;2.97;1.13;;;8.60;99.90;;;;;;5132564;27;20200;-78
2020/12/14 05:26:48;;;;;;;3.38;1.27;;;8.60;99.90;;;;;;5121765;27;20199;-78
2020/12/14 05:29:17;;;;;;;2.88;1.15;;;8.70;99.90;;;;;;5129283;27;20249;-78
2020/12/14 05:31:59;;;;;;;2.85;0.90;;;8.60;99.90;;;;;;5112179;28;20203;-78
2020/12/14 05:34:30;;;;;;;1.33;1.17;;;8.60;99.90;;;;;;5112271;28;20195;-77
2020/12/14 05:36:57;;;;;;;4.60;1.63;;;8.60;99.90;;;;;;5120929;28;20188;-78
2020/12/14 05:39:27;;;;;;;1.63;1.13;;;8.60;99.90;;;;;;5132576;27;20567;-78
2020/12/14 05:42:07;;;;;;;1.20;1.10;;;8.70;99.90;;;;;;5127724;27;20213;-78
2020/12/14 05:44:34;;;;;;;1.30;1.00;;;8.60;99.90;;;;;;5112847;28;20204;-78
2020/12/14 05:47:01;;;;;;;1.42;1.15;;;8.70;99.90;;;;;;5132646;27;20200;-78
2020/12/14 05:49:27;;;;;;;2.22;1.20;;;8.70;99.90;;;;;;5132675;27;20200;-78
2020/12/14 05:52:00;;;;;;;3.08;1.20;;;8.80;99.90;;;;;;5132671;27;20202;-78
2020/12/14 05:54:35;;;;;;;1.30;1.00;;;8.80;99.90;;;;;;5119927;27;20205;-78
2020/12/14 05:57:03;;;;;;;1.08;0.98;;;8.70;99.90;;;;;;5116175;27;20204;-79
2020/12/14 05:59:34;;;;;;;2.85;1.20;;;8.70;99.90;;;;;;5115485;28;20289;-78
2020/12/14 06:02:03;;;;;;;1.45;1.10;;;8.70;99.90;;;;;;5116663;27;20599;-78
2020/12/14 06:04:32;;;;;;;2.85;1.15;;;8.70;99.90;;;;;;5117948;27;20212;-78
2020/12/14 06:07:03;;;;;;;1.15;1.05;;;8.70;99.90;;;;;;5121433;27;20197;-79
2020/12/14 06:09:37;;;;;;;1.30;1.00;;;8.70;99.90;;;;;;5115688;27;20204;-78
2020/12/14 06:12:04;;;;;;;2.30;1.48;;;8.70;99.90;;;;;;5119374;27;20185;-79
2020/12/14 06:14:39;;;;;;;1.67;1.20;;;8.70;99.90;;;;;;5115301;27;20196;-79
2020/12/14 06:17:10;;;;;;;1.48;0.98;;;8.80;99.90;;;;;;5133218;27;20256;-78
2020/12/14 06:19:37;;;;;;;4.22;1.10;;;8.80;99.90;;;;;;5136153;27;20267;-77
2020/12/14 06:22:08;;;;;;;1.30;0.88;;;8.80;99.90;;;;;;5131782;27;20213;-77
2020/12/14 06:24:36;;;;;;;1.17;1.00;;;8.80;99.90;;;;;;5115610;27;20197;-77
2020/12/14 06:27:07;;;;;;;1.55;1.10;;;8.80;99.90;;;;;;5116850;27;20196;-77
2020/12/14 06:32:59;;;;;;;1.73;1.10;;;8.70;99.90;;;;;;5112517;28;20586;-77
2020/12/14 06:35:42;;;;;;;1.90;1.42;;;8.80;99.90;;;;;;5115242;28;20711;-78
2020/12/14 06:38:08;;;;;;;1.17;1.08;;;8.80;99.90;;;;;;5114908;28;20656;-78
2020/12/14 06:40:57;;;;;;;1.38;1.02;;;8.80;99.90;;;;;;5130324;27;20313;-76
2020/12/14 06:43:31;;;;;;;2.33;1.00;;;8.70;99.90;;;;;;5129754;27;20229;-76
2020/12/14 06:45:57;;;;;;;2.08;0.90;;;8.70;99.90;;;;;;5114693;28;20597;-77
2020/12/14 06:48:40;;;;;;;1.60;1.30;;;8.80;99.90;;;;;;5115825;27;20638;-77
2020/12/14 06:51:08;;;;;;;1.60;1.40;;;8.80;99.90;;;;;;5114554;27;20211;-76
2020/12/14 06:53:45;;;;;;;2.40;1.17;;;8.80;99.90;;;;;;5115234;27;20199;-77
2020/12/14 06:56:14;;;;;;;1.55;0.88;;;8.80;99.90;;;;;;5114286;28;20196;-76
2020/12/14 06:58:42;;;;;;;1.52;1.30;;;8.80;99.90;;;;;;5133170;27;20211;-76
2020/12/14 07:01:33;;;;;;;1.70;1.38;;;8.90;99.90;;;;;;5133617;27;20211;-77
2020/12/14 07:04:05;;;;;;;1.60;1.00;;;8.90;99.90;;;;;;5112368;27;20246;-76
2020/12/14 07:06:31;;;;;;;2.80;1.40;;;8.90;99.90;;;;;;5133140;27;20199;-76
2020/12/14 07:08:58;;;;;;;3.65;1.90;;;8.90;99.90;;;;;;5130955;27;20200;-76
2020/12/14 07:11:26;;;;;;;1.80;0.93;;;8.90;99.90;;;;;;5117500;27;20193;-76
2020/12/14 07:13:53;;;;;;;4.60;1.50;;;8.90;99.90;;;;;;5115106;27;20288;-77
2020/12/14 07:16:29;;;;;;;1.70;1.15;;;8.90;99.90;;;;;;5114294;27;20200;-76
2020/12/14 07:18:55;;;;;;;2.00;1.15;;;8.90;99.90;;;;;;5114059;28;20196;-77
2020/12/14 07:21:23;;;;;;;2.17;1.27;;;8.90;99.90;;;;;;5114878;27;20208;-77
2020/12/14 07:23:51;;;;;;;2.75;1.23;;;8.90;99.90;;;;;;5114078;28;20614;-76
2020/12/14 07:26:18;;;;;;;1.73;1.00;;;8.90;99.90;;;;;;5114039;27;20197;-76
2020/12/14 07:28:49;;;;;;;2.10;1.30;;;8.90;99.90;;;;;;5115123;27;20196;-76
2020/12/14 07:31:18;;;;;;;1.45;1.05;;;8.90;99.90;;;;;;5127136;27;20543;-77
2020/12/14 07:33:53;;;;;;;1.42;1.00;;;8.90;99.90;;;;;;5121349;27;20209;-76
2020/12/14 07:36:20;;;;;;;1.70;1.17;;;8.90;99.90;;;;;;5134691;27;20196;-77
2020/12/14 07:38:49;;;;;;;1.25;1.00;;;8.90;99.90;;;;;;5133298;27;20220;-77
2020/12/14 07:41:16;;;;;;;2.72;1.67;;;8.80;99.90;;;;;;5123297;27;20220;-77
2020/12/14 07:43:45;;;;;;;1.73;1.35;;;8.90;99.90;;;;;;5113534;28;20434;-76
2020/12/14 07:46:33;;;;;;;1.50;1.38;;;8.80;99.90;;;;;;5119009;27;20188;-76
2020/12/14 07:49:03;;;;;;;2.10;1.00;;;8.90;99.90;;;;;;5111374;27;20209;-77
2020/12/14 07:51:30;;;;;;;2.40;1.23;;;8.90;99.90;;;;;;5113457;28;20219;-76
2020/12/14 07:54:10;;;;;;;1.85;1.33;;;8.90;99.90;;;;;;5113175;28;20341;-75
2020/12/14 07:56:52;;;;;;;3.75;1.33;;;8.80;99.90;;;;;;5113289;27;20196;-76
2020/12/14 07:59:21;;;;;;;4.38;1.10;;;8.80;99.90;;;;;;5113915;27;20685;-75
2020/12/14 08:01:49;;;;;;;2.28;1.40;;;8.90;99.90;;;;;;5122200;27;20192;-74
2020/12/14 08:04:23;;;;;;;1.30;1.13;;;8.80;99.90;;;;;;5130791;27;20208;-75
2020/12/14 08:06:50;;;;;;;1.70;1.25;;;8.80;99.90;;;;;;5127755;27;20189;-75
2020/12/14 08:09:19;;;;;;;1.55;1.20;;;8.90;99.90;;;;;;5112887;27;20279;-75
2020/12/14 08:11:47;;;;;;;2.80;2.00;;;8.90;99.90;;;;;;5118660;27;20188;-76
2020/12/14 08:14:16;;;;;;;2.28;1.33;;;8.90;99.90;;;;;;5114224;27;20284;-76
2020/12/14 08:16:43;;;;;;;2.80;1.45;;;8.90;99.90;;;;;;5112746;27;20193;-76
2020/12/14 08:19:15;;;;;;;1.25;1.05;;;8.90;99.90;;;;;;5133149;27;20188;-77
2020/12/14 08:21:42;;;;;;;1.50;1.00;;;8.90;99.90;;;;;;5126313;27;20255;-77
2020/12/14 08:24:10;;;;;;;1.20;1.10;;;8.90;99.90;;;;;;5120671;27;20265;-77
2020/12/14 08:26:39;;;;;;;1.98;1.15;;;8.90;99.90;;;;;;5115845;27;20701;-77
2020/12/14 08:29:06;;;;;;;1.70;1.42;;;8.90;99.90;;;;;;5111596;27;20295;-77
2020/12/14 08:31:32;;;;;;;1.20;1.10;;;8.90;99.90;;;;;;5111353;27;20200;-77
2020/12/14 08:33:58;;;;;;;2.60;1.17;;;9.00;99.90;;;;;;5111920;27;20192;-77
2020/12/14 08:36:25;;;;;;;2.03;1.38;;;9.00;99.90;;;;;;5112435;28;20200;-77
2020/12/14 08:38:52;;;;;;;1.75;1.00;;;9.00;99.90;;;;;;5115772;27;20228;-77
2020/12/14 08:41:22;;;;;;;1.67;1.15;;;9.00;99.90;;;;;;5112252;28;20188;-77
2020/12/14 08:43:50;;;;;;;1.70;1.00;;;9.00;99.90;;;;;;5112401;28;20213;-77
2020/12/14 08:46:17;;;;;;;2.30;1.40;;;9.00;99.90;;;;;;5129204;27;20184;-77
2020/12/14 08:48:48;;;;;;;1.88;1.40;;;9.00;99.90;;;;;;5114946;27;20203;-77
2020/12/14 08:51:16;;;;;;;1.65;1.15;;;9.10;99.90;;;;;;5124580;27;20641;-77
2020/12/14 08:53:44;;;;;;;1.35;1.05;;;9.00;99.90;;;;;;5111565;28;20200;-76
2020/12/14 08:56:12;;;;;;;1.77;1.25;;;9.10;99.90;;;;;;5113204;28;20200;-77
2020/12/14 08:58:53;;;;;;;3.80;1.40;;;9.10;99.90;;;;;;5112128;28;20257;-77
2020/12/14 09:01:21;;;;;;;1.50;1.30;;;9.00;99.90;;;;;;5126947;27;20188;-76
2020/12/14 09:03:56;;;;;;;1.75;1.10;;;9.00;99.90;;;;;;5114758;27;20225;-75
2020/12/14 09:06:27;;;;;;;1.85;1.05;;;9.00;99.90;;;;;;5128877;28;20209;-76
2020/12/14 09:09:07;;;;;;;1.10;0.90;;;9.10;99.90;;;;;;5128571;27;20556;-76
2020/12/14 09:11:35;;;;;;;1.30;1.13;;;9.00;99.90;;;;;;5112508;28;20275;-77
2020/12/14 09:14:04;;;;;;;1.80;1.20;;;9.10;99.90;;;;;;5111939;28;20199;-76
2020/12/14 09:16:31;;;;;;;2.85;1.02;;;9.10;99.90;;;;;;5113107;28;20197;-76
2020/12/14 09:18:57;;;;;;;2.20;2.00;;;9.10;99.90;;;;;;5112008;28;20540;-76
2020/12/14 09:21:24;;;;;;;1.42;1.33;;;9.10;99.90;;;;;;5112948;28;20196;-76
2020/12/14 09:24:10;;;;;;;2.50;1.50;;;9.10;99.90;;;;;;5115207;27;20274;-76
2020/12/14 09:26:37;;;;;;;1.63;1.23;;;9.10;99.90;;;;;;5113074;28;20189;-76
2020/12/14 09:29:04;;;;;;;2.78;1.35;;;9.20;99.90;;;;;;5115714;28;20201;-76
2020/12/14 09:31:30;;;;;;;2.17;1.50;;;9.20;99.90;;;;;;5119275;27;20219;-76
2020/12/14 09:33:57;;;;;;;2.28;1.52;;;9.20;99.90;;;;;;5123715;27;20200;-76
2020/12/14 09:36:23;;;;;;;2.13;1.60;;;9.20;99.90;;;;;;5130888;27;20207;-76
2020/12/14 09:38:49;;;;;;;2.65;1.50;;;9.10;99.90;;;;;;5129027;27;20228;-76
2020/12/14 09:41:16;;;;;;;1.77;1.50;;;9.10;99.90;;;;;;5130575;27;20204;-77
2020/12/14 09:43:43;;;;;;;2.90;1.45;;;9.20;99.90;;;;;;5137830;27;20219;-77
2020/12/14 09:46:10;;;;;;;3.22;1.30;;;9.20;99.90;;;;;;5130282;27;20193;-77
2020/12/14 09:48:37;;;;;;;4.30;1.30;;;9.20;99.90;;;;;;5136702;27;20893;-76
2020/12/14 09:51:03;;;;;;;1.70;1.42;;;9.20;99.90;;;;;;5123955;27;20201;-76
2020/12/14 09:53:30;;;;;;;1.35;1.25;;;9.20;99.90;;;;;;5123067;27;20200;-76
2020/12/14 09:55:56;;;;;;;2.10;1.42;;;9.20;99.90;;;;;;5128680;27;20184;-79
2020/12/14 09:58:22;;;;;;;1.30;1.20;;;9.20;99.90;;;;;;5124870;27;20201;-82
2020/12/14 10:00:48;;;;;;;1.73;1.30;;;9.20;99.90;;;;;;5128803;27;20204;-80
2020/12/14 10:03:16;;;;;;;1.45;1.15;;;9.20;99.90;;;;;;5117816;27;20223;-85
2020/12/14 10:05:47;;;;;;;1.98;1.60;;;9.20;99.90;;;;;;5128952;27;20193;-83
2020/12/14 10:08:14;;;;;;;1.58;1.48;;;9.20;99.90;;;;;;5134684;27;20194;-83
2020/12/14 10:10:40;;;;;;;2.15;1.40;;;9.20;99.90;;;;;;5131684;27;20202;-83
2020/12/14 10:13:07;;;;;;;2.15;1.35;;;9.20;99.90;;;;;;5128938;27;20235;-83
2020/12/14 10:15:33;;;;;;;2.55;1.30;;;9.20;99.90;;;;;;5128885;27;20192;-83
2020/12/14 10:17:59;;;;;;;1.85;1.13;;;9.20;99.90;;;;;;5122980;27;20204;-82
2020/12/14 10:20:27;;;;;;;1.60;1.15;;;9.20;99.90;;;;;;5125040;27;20203;-83
2020/12/14 10:22:54;;;;;;;1.30;1.05;;;9.20;99.90;;;;;;5116506;27;20683;-83
2020/12/14 10:25:20;;;;;;;2.42;1.73;;;9.20;99.90;;;;;;5116750;27;20529;-83
2020/12/14 10:27:46;;;;;;;1.65;1.30;;;9.20;99.90;;;;;;5115976;28;20215;-83
2020/12/14 10:30:13;;;;;;;1.02;0.90;;;9.20;99.90;;;;;;5124916;27;20639;-83
2020/12/14 10:32:39;;;;;;;1.30;1.10;;;9.20;99.90;;;;;;5127566;27;20212;-83
2020/12/14 10:35:05;;;;;;;4.40;1.15;;;9.20;99.90;;;;;;5117144;27;20707;-84
2020/12/14 10:37:33;;;;;;;1.55;1.13;;;9.20;99.90;;;;;;5127200;27;20188;-83
2020/12/14 10:40:01;;;;;;;2.00;1.40;;;9.20;99.90;;;;;;5129060;27;20238;-83
2020/12/14 10:42:27;;;;;;;1.63;1.23;;;9.30;99.90;;;;;;5131656;27;20295;-83
2020/12/14 10:44:53;;;;;;;1.35;1.25;;;9.20;99.90;;;;;;5118777;27;20529;-83
2020/12/14 10:47:20;;;;;;;2.60;2.30;;;9.30;99.90;;;;;;5123048;27;20189;-83
2020/12/14 10:49:46;;;;;;;2.05;1.50;;;9.30;99.90;;;;;;5115971;27;20217;-83
2020/12/14 10:52:12;;;;;;;1.23;1.13;;;9.30;99.90;;;;;;5120178;27;20200;-83
2020/12/14 10:54:39;;;;;;;2.00;1.10;;;9.30;99.90;;;;;;5115871;27;20223;-83
2020/12/14 10:57:06;;;;;;;2.45;1.35;;;9.30;99.90;;;;;;5116172;27;20220;-83
2020/12/14 10:59:32;;;;;;;3.63;1.55;;;9.40;99.90;;;;;;5116159;27;20529;-84
2020/12/14 11:01:58;;;;;;;2.15;1.45;;;9.40;99.90;;;;;;5124433;27;20196;-83
2020/12/14 11:04:25;;;;;;;2.50;1.88;;;9.40;99.90;;;;;;5116170;27;20556;-84
2020/12/14 11:06:51;;;;;;;3.28;1.23;;;9.40;99.90;;;;;;5122218;27;20196;-83
2020/12/14 11:09:17;;;;;;;1.95;1.30;;;9.40;99.90;;;;;;5115887;27;20196;-83
2020/12/14 11:11:45;;;;;;;2.65;1.30;;;9.40;99.90;;;;;;5115061;28;20201;-84
2020/12/14 11:14:11;;;;;;;1.77;1.30;;;9.40;99.90;;;;;;5115861;27;20189;-83
2020/12/14 11:16:39;;;;;;;1.27;1.17;;;9.40;99.90;;;;;;5122228;27;20200;-83
2020/12/14 11:19:06;;;;;;;2.30;1.30;;;9.40;99.90;;;;;;5119640;27;20299;-84
2020/12/14 11:21:32;;;;;;;2.47;1.35;;;9.40;99.90;;;;;;5122709;27;20652;-83
2020/12/14 11:23:58;;;;;;;1.40;1.10;;;9.40;99.90;;;;;;5123281;27;20220;-83
2020/12/14 11:26:25;;;;;;;2.47;1.48;;;9.50;99.90;;;;;;5114385;28;20242;-83
2020/12/14 11:28:52;;;;;;;2.08;1.20;;;9.50;99.90;;;;;;5116484;27;20201;-81
2020/12/14 11:31:19;;;;;;;2.10;1.10;;;9.50;99.90;;;;;;5126875;27;20280;-85
2020/12/14 11:33:45;;;;;;;1.83;1.65;;;9.50;99.90;;;;;;5114214;28;20526;-82
2020/12/14 11:36:12;;;;;;;1.05;0.90;;;9.60;99.90;;;;;;5113457;27;20189;-80
2020/12/14 11:38:38;;;;;;;2.70;1.30;;;9.60;99.90;;;;;;5116365;27;20228;-84
2020/12/14 11:41:05;;;;;;;1.70;1.42;;;9.60;99.90;;;;;;5127058;27;20196;-80
2020/12/14 11:43:31;;;;;;;1.95;1.27;;;9.60;99.90;;;;;;5122574;27;20219;-80
2020/12/14 11:45:58;;;;;;;1.48;1.00;;;9.60;99.90;;;;;;5113277;28;20197;-80
2020/12/14 11:48:24;;;;;;;1.83;1.40;;;9.60;99.90;;;;;;5125316;27;20195;-79
2020/12/14 11:50:51;;;;;;;1.90;1.60;;;9.70;99.90;;;;;;5117019;27;20201;-81
2020/12/14 11:53:17;;;;;;;1.60;1.17;;;9.70;99.90;;;;;;5114439;27;20748;-80
2020/12/14 11:55:45;;;;;;;2.30;2.10;;;9.70;99.90;;;;;;5131541;27;20203;-82
2020/12/14 11:58:11;;;;;;;1.58;1.38;;;9.80;99.90;;;;;;5113346;27;20193;-82
2020/12/14 12:00:37;;;;;;;1.80;0.90;;;9.80;99.90;;;;;;5112720;28;20204;-82
2020/12/14 12:03:05;;;;;;;2.05;1.17;;;9.80;99.90;;;;;;5112793;28;20216;-82
2020/12/14 12:05:31;;;;;;;1.88;1.63;;;9.80;99.90;;;;;;5114993;27;20200;-80
2020/12/14 12:07:57;;;;;;;3.60;2.10;;;9.80;99.90;;;;;;5114088;27;20193;-84
2020/12/14 12:10:24;;;;;;;2.38;1.30;;;9.80;99.90;;;;;;5114532;28;20193;-87
2020/12/14 12:12:51;;;;;;;2.55;1.55;;;9.80;99.90;;;;;;5114664;27;20193;-78
2020/12/14 12:15:17;;;;;;;3.10;1.42;;;9.80;99.90;;;;;;5117405;27;20266;-76
2020/12/14 12:17:43;;;;;;;1.73;1.52;;;9.80;99.90;;;;;;5120569;27;20197;-75
2020/12/14 12:20:10;;;;;;;2.42;1.50;;;9.80;99.90;;;;;;5125742;27;20211;-75
2020/12/14 12:22:37;;;;;;;3.33;1.55;;;9.80;99.90;;;;;;5121885;27;20203;-79
2020/12/14 12:25:04;;;;;;;2.95;2.42;;;9.90;99.90;;;;;;5117934;27;20297;-78
2020/12/14 12:27:30;;;;;;;1.65;1.17;;;9.90;99.90;;;;;;5113922;27;20211;-81
2020/12/14 12:29:57;;;;;;;2.03;1.55;;;9.90;99.90;;;;;;5112694;27;20685;-81
2020/12/14 12:32:23;;;;;;;2.00;1.60;;;9.90;99.90;;;;;;5122762;27;20207;-80
2020/12/14 12:34:49;;;;;;;4.75;1.60;;;9.90;99.90;;;;;;5120327;27;20196;-83
2020/12/14 12:37:16;;;;;;;2.80;1.58;;;9.90;99.90;;;;;;5121793;27;20185;-81
2020/12/14 12:39:43;;;;;;;2.45;1.40;;;9.90;99.90;;;;;;5119624;27;20296;-85
2020/12/14 12:42:09;;;;;;;2.35;1.52;;;9.90;99.90;;;;;;5120985;27;20283;-81
2020/12/14 12:44:35;;;;;;;1.70;1.50;;;9.90;99.90;;;;;;5130713;27;20212;-83
2020/12/14 12:47:05;;;;;;;1.80;1.25;;;9.90;99.90;;;;;;5153770;27;20627;-82
2020/12/14 12:49:31;;;;;;;1.85;1.65;;;9.90;99.90;;;;;;5135286;27;20207;-85
2020/12/14 12:51:59;;;;;;;2.92;1.67;;;10.00;99.90;;;;;;5111470;28;20203;-80
2020/12/14 12:54:27;;;;;;;1.85;1.30;;;10.00;99.90;;;;;;5112531;28;20201;-83
2020/12/14 12:56:54;;;;;;;1.88;1.30;;;10.00;99.90;;;;;;5113755;28;20189;-80
2020/12/14 12:59:20;;;;;;;1.52;1.20;;;10.00;99.90;;;;;;5133177;27;20560;-82
2020/12/14 13:01:47;;;;;;;2.17;1.40;;;10.00;99.90;;;;;;5129668;27;20207;-82
2020/12/14 13:04:14;;;;;;;2.05;1.63;;;10.10;99.90;;;;;;5113195;27;20208;-80